Catu, Brazil
Current Conditions -  °F | °C
As of 9:00 PM on Sunday 23 Nov 2014 (Local Time) from SBSV Reporting Station
Scattered Clouds Scattered Clouds  
Wind Chill: 77°   Ceiling: Unl
Heat Index: 78°   Visibility: 6mi
Dew Point: 72°   Wind: 10mph
Humidity: 83%   Direction: 70°ENE
Pressure: 29.94"   Gusts: NA
Location:  12.35°S, 38.38°W
Report Text: SBSV 240000Z 07009KT 9999 SCT017 25/22 Q1014
Loading
Personal Weather Stations






























Interactive Weather Map New forecast layout! Learn more

10-Day Weather Forecast

Advertisements
Track Severe Weather on mobile